createdAt,value
2023-12-01T00:02:32.934Z,26.55
2023-12-01T00:06:35.155Z,30.15
2023-12-01T00:10:37.425Z,29.40
2023-12-01T00:14:42.998Z,29.30
2023-12-01T00:18:45.190Z,26.08
2023-12-01T00:22:47.178Z,24.87
2023-12-01T00:26:49.411Z,26.27
2023-12-01T00:30:51.421Z,22.70
2023-12-01T00:43:21.484Z,27.25
2023-12-01T00:47:23.526Z,24.37
2023-12-01T00:51:25.655Z,26.17
2023-12-01T00:55:27.943Z,22.87
2023-12-01T00:59:29.936Z,24.63
2023-12-01T01:03:32.278Z,24.42
2023-12-01T01:07:34.398Z,25.13
2023-12-01T01:11:36.907Z,23.80
2023-12-01T01:15:39.072Z,24.17
2023-12-01T01:19:40.978Z,23.27
2023-12-01T01:23:43.783Z,21.55
2023-12-01T01:31:54.823Z,21.05
2023-12-01T01:35:57.385Z,20.70
2023-12-01T01:39:59.215Z,19.92
2023-12-01T01:48:12.681Z,19.35
2023-12-01T01:52:14.974Z,20.20
2023-12-01T01:56:17.983Z,21.33
2023-12-01T02:08:40.894Z,20.55
2023-12-01T02:12:44.776Z,21.90
2023-12-01T02:16:47.650Z,20.65
2023-12-01T02:24:53.308Z,19.88
2023-12-01T02:28:55.210Z,23.52
2023-12-01T02:33:02.807Z,21.30
2023-12-01T02:37:05.011Z,24.15
2023-12-01T02:41:07.898Z,22.47
2023-12-01T02:49:15.652Z,24.30
2023-12-01T02:53:18.487Z,24.40
2023-12-01T03:01:31.536Z,23.10
2023-12-01T03:05:33.393Z,21.95
2023-12-01T03:09:36.404Z,23.08
2023-12-01T03:17:49.574Z,17.65
2023-12-01T03:21:51.800Z,20.83
2023-12-01T03:25:53.967Z,20.55
2023-12-01T03:29:56.015Z,20.50
2023-12-01T03:38:06.980Z,23.58
2023-12-01T03:42:10.911Z,28.63
2023-12-01T03:46:13.303Z,24.05
2023-12-01T03:50:16.506Z,24.17
2023-12-01T03:54:18.611Z,26.77
2023-12-01T04:02:33.062Z,25.65
2023-12-01T04:06:35.163Z,26.00
2023-12-01T04:10:37.481Z,25.02
2023-12-01T04:14:39.491Z,24.85
2023-12-01T04:18:41.431Z,22.75
2023-12-01T04:22:43.371Z,22.40
2023-12-01T04:26:45.551Z,23.50
2023-12-01T04:30:47.697Z,21.80
2023-12-01T04:34:49.793Z,22.90
2023-12-01T04:38:51.937Z,22.37
2023-12-01T04:42:54.461Z,22.63
2023-12-01T04:46:56.622Z,22.05
2023-12-01T04:50:58.829Z,18.03
2023-12-01T04:55:00.705Z,21.40
2023-12-01T04:59:02.794Z,19.98
2023-12-01T05:03:07.109Z,20.05
2023-12-01T05:07:08.998Z,20.10
2023-12-01T05:11:12.295Z,19.73
2023-12-01T05:15:16.859Z,18.52
2023-12-01T05:19:18.743Z,19.58
2023-12-01T05:23:20.598Z,17.95
2023-12-01T05:27:27.267Z,20.70
2023-12-01T05:31:29.933Z,20.70
2023-12-01T05:39:37.215Z,21.83
2023-12-01T05:43:44.695Z,19.83
2023-12-01T05:47:48.431Z,18.88
2023-12-01T05:51:50.413Z,20.45
2023-12-01T05:55:53.138Z,22.30
2023-12-01T05:59:55.381Z,22.60
2023-12-01T06:03:57.260Z,20.67
2023-12-01T06:08:01.273Z,23.67
2023-12-01T06:12:03.352Z,19.98
2023-12-01T06:16:05.773Z,20.92
2023-12-01T06:20:18.664Z,24.27
2023-12-01T06:24:22.460Z,21.65
2023-12-01T06:28:25.440Z,20.90
2023-12-01T06:36:29.407Z,19.05
2023-12-01T06:40:34.939Z,20.60
2023-12-01T06:44:37.479Z,20.02
2023-12-01T06:48:39.510Z,20.87
2023-12-01T06:52:45.344Z,20.05
2023-12-01T06:56:47.248Z,20.17
2023-12-01T07:00:50.716Z,19.92
2023-12-01T07:04:56.663Z,19.52
2023-12-01T07:08:59.992Z,20.83
2023-12-01T07:13:02.336Z,21.17
2023-12-01T07:17:07.666Z,20.73
2023-12-01T07:21:22.084Z,20.45
2023-12-01T07:42:21.699Z,20.98
2023-12-01T07:46:23.758Z,18.73
2023-12-01T07:50:28.291Z,19.00
2023-12-01T07:54:34.898Z,20.88
2023-12-01T07:58:40.944Z,19.05
2023-12-01T08:02:51.372Z,20.30
2023-12-01T08:06:53.230Z,21.40
2023-12-01T08:10:55.305Z,21.70
2023-12-01T08:14:57.680Z,19.57
2023-12-01T08:19:00.165Z,17.77
2023-12-01T08:23:25.830Z,17.40
2023-12-01T08:27:28.217Z,15.30
2023-12-01T08:31:35.606Z,15.93
2023-12-01T08:35:37.770Z,17.15
2023-12-01T08:39:39.885Z,16.97
2023-12-01T08:43:41.981Z,15.95
2023-12-01T08:47:45.921Z,15.53
2023-12-01T08:51:49.190Z,15.00
2023-12-01T08:55:51.884Z,14.55
2023-12-01T08:59:54.371Z,14.57
2023-12-01T09:03:56.541Z,15.07
2023-12-01T09:07:58.707Z,13.63
2023-12-01T09:12:00.957Z,14.03
2023-12-01T09:16:03.042Z,12.50
2023-12-01T09:20:10.097Z,13.57
2023-12-01T09:24:12.149Z,11.35
2023-12-01T09:28:14.637Z,10.47
2023-12-01T09:32:20.997Z,10.60
2023-12-01T09:36:23.834Z,9.50
2023-12-01T09:40:26.065Z,10.18
2023-12-01T09:44:28.268Z,9.32
2023-12-01T09:48:34.563Z,8.73
2023-12-01T09:52:36.544Z,11.63
2023-12-01T09:56:38.660Z,12.05
2023-12-01T10:00:41.126Z,9.73
2023-12-01T10:04:44.481Z,10.77
2023-12-01T10:08:50.337Z,10.50
2023-12-01T10:12:59.762Z,13.18
2023-12-01T10:17:05.080Z,10.85
2023-12-01T10:21:09.269Z,9.85
2023-12-01T10:25:13.381Z,11.32
2023-12-01T10:29:29.694Z,9.52
2023-12-01T10:33:32.997Z,9.45
2023-12-01T10:37:44.610Z,9.80
2023-12-01T10:56:30.543Z,9.25
2023-12-01T11:00:33.121Z,10.63
2023-12-01T11:04:35.810Z,9.32
2023-12-01T11:08:43.865Z,10.25
2023-12-01T11:13:28.316Z,10.32
2023-12-01T11:17:30.301Z,7.20
2023-12-01T11:21:32.243Z,6.43
2023-12-01T11:25:51.652Z,6.30
2023-12-01T11:30:16.209Z,7.45
2023-12-01T11:34:20.512Z,6.30
2023-12-01T11:38:23.229Z,6.47
2023-12-01T11:42:26.677Z,6.65
2023-12-01T11:46:29.350Z,5.80
2023-12-01T11:50:32.560Z,6.53
2023-12-01T11:54:38.729Z,6.20
2023-12-01T11:58:40.524Z,6.32
2023-12-01T12:02:42.422Z,5.00
2023-12-01T12:06:54.051Z,5.85
2023-12-01T12:10:55.925Z,7.10
2023-12-01T12:15:15.076Z,6.53
2023-12-01T12:19:17.541Z,5.78
2023-12-01T12:23:19.984Z,5.93
2023-12-01T12:27:25.150Z,6.97
2023-12-01T12:31:30.314Z,5.35
2023-12-01T12:35:32.449Z,4.95
2023-12-01T12:39:35.216Z,5.97
2023-12-01T12:43:37.174Z,5.55
2023-12-01T12:47:43.558Z,4.97
2023-12-01T12:51:49.730Z,4.90
2023-12-01T12:55:51.583Z,5.25
2023-12-01T12:59:56.204Z,6.13
2023-12-01T13:03:58.697Z,5.53
2023-12-01T13:08:00.659Z,4.03
2023-12-01T13:12:02.630Z,6.03
2023-12-01T13:16:08.015Z,5.38
2023-12-01T13:28:37.389Z,5.38
2023-12-01T13:41:00.187Z,7.47
2023-12-01T13:45:05.340Z,6.18
2023-12-01T13:49:15.504Z,11.27
2023-12-01T13:57:31.209Z,6.57
2023-12-01T14:01:34.804Z,6.78
2023-12-01T14:05:39.804Z,6.93
2023-12-01T14:09:41.899Z,7.07
2023-12-01T14:13:44.050Z,7.60
2023-12-01T14:17:48.104Z,7.77
2023-12-01T14:21:51.085Z,7.28
2023-12-01T14:25:54.535Z,6.88
2023-12-01T14:29:58.894Z,6.97
2023-12-01T14:34:11.731Z,7.20
2023-12-01T14:38:13.757Z,7.45
2023-12-01T14:42:15.756Z,7.55
2023-12-01T14:46:18.471Z,7.17
2023-12-01T14:50:51.796Z,7.97
2023-12-01T14:58:58.288Z,8.07
2023-12-01T15:03:00.656Z,7.87
2023-12-01T15:07:04.159Z,10.52
2023-12-01T15:11:17.185Z,9.65
2023-12-01T15:15:20.724Z,10.52
2023-12-01T15:19:23.425Z,10.90
2023-12-01T15:23:25.316Z,9.88
2023-12-01T15:27:28.205Z,10.88
2023-12-01T15:35:53.235Z,10.00
2023-12-01T15:39:56.503Z,10.15
2023-12-01T15:44:05.410Z,10.65
2023-12-01T15:48:19.524Z,9.70
2023-12-01T15:52:44.833Z,8.30
2023-12-01T15:56:46.994Z,7.45
2023-12-01T16:00:48.959Z,8.20
2023-12-01T16:04:51.604Z,9.55
2023-12-01T16:08:53.510Z,8.73
2023-12-01T16:12:59.036Z,11.18
2023-12-01T16:17:01.643Z,12.13
2023-12-01T16:21:04.854Z,9.63
2023-12-01T16:25:10.463Z,6.28
2023-12-01T16:29:36.096Z,7.05
2023-12-01T16:33:38.881Z,7.97
2023-12-01T16:37:40.972Z,8.10
2023-12-01T16:41:42.819Z,7.63
2023-12-01T16:45:44.799Z,6.47
2023-12-01T16:49:46.680Z,6.80
2023-12-01T16:53:48.767Z,8.07
2023-12-01T16:57:54.324Z,7.20
2023-12-01T17:01:58.707Z,8.32
2023-12-01T17:06:00.795Z,8.15
2023-12-01T17:10:03.183Z,6.60
2023-12-01T17:14:04.965Z,8.98
2023-12-01T17:18:06.978Z,7.20
2023-12-01T17:22:09.261Z,7.70
2023-12-01T17:26:14.091Z,8.23
2023-12-01T17:30:16.171Z,11.88
2023-12-01T17:34:18.467Z,11.37
2023-12-01T17:38:25.596Z,14.10
2023-12-01T17:42:27.850Z,13.50
2023-12-01T17:46:31.436Z,13.57
2023-12-01T17:50:34.055Z,13.88
2023-12-01T17:54:40.354Z,13.50
2023-12-01T17:58:42.135Z,14.85
2023-12-01T18:02:43.960Z,13.95
2023-12-01T18:06:48.212Z,12.57
2023-12-01T18:10:51.772Z,12.80
2023-12-01T18:14:55.448Z,11.60
2023-12-01T18:18:57.273Z,11.05
2023-12-01T18:22:59.077Z,12.07
2023-12-01T18:27:02.629Z,12.68
2023-12-01T18:31:04.676Z,9.65
2023-12-01T18:35:08.622Z,10.20
2023-12-01T18:39:29.106Z,9.60
2023-12-01T18:43:32.162Z,13.43
2023-12-01T18:51:47.462Z,13.73
2023-12-01T18:55:49.391Z,12.77
2023-12-01T18:59:51.619Z,13.13
2023-12-01T19:03:53.627Z,17.77
2023-12-01T19:07:56.789Z,13.47
2023-12-01T19:12:15.731Z,13.55
2023-12-01T19:16:17.957Z,11.13
2023-12-01T19:20:19.875Z,13.30
2023-12-01T19:28:32.805Z,10.52
2023-12-01T19:32:34.624Z,9.20
2023-12-01T19:36:45.931Z,12.23
2023-12-01T19:40:47.811Z,10.57
2023-12-01T19:44:50.458Z,9.32
2023-12-01T19:48:53.292Z,11.40
2023-12-01T19:52:55.390Z,12.02
2023-12-01T19:56:57.184Z,11.18
2023-12-01T20:01:00.218Z,10.98
2023-12-01T20:09:04.207Z,13.73
2023-12-01T20:13:06.350Z,13.43
2023-12-01T20:17:10.680Z,11.53
2023-12-01T20:21:12.606Z,10.68
2023-12-01T20:25:14.605Z,12.40
2023-12-01T20:29:16.540Z,13.73
2023-12-01T20:33:19.053Z,11.38
2023-12-01T20:37:22.225Z,11.85
2023-12-01T20:41:26.268Z,14.95
2023-12-01T20:45:28.814Z,12.63
2023-12-01T20:49:32.174Z,12.63
2023-12-01T20:53:34.854Z,11.23
2023-12-01T20:57:36.773Z,13.10
2023-12-01T21:01:38.850Z,12.98
2023-12-01T21:05:43.556Z,9.63
2023-12-01T21:09:45.667Z,12.02
2023-12-01T21:13:48.594Z,13.10
2023-12-01T21:17:50.695Z,12.20
2023-12-01T21:21:52.791Z,14.97
2023-12-01T21:25:54.813Z,11.93
2023-12-01T21:29:56.663Z,14.15
2023-12-01T21:33:58.940Z,12.68
2023-12-01T21:38:01.141Z,16.15
2023-12-01T21:42:03.297Z,15.07
2023-12-01T21:46:05.495Z,17.30
2023-12-01T21:50:09.738Z,14.20
2023-12-01T21:54:13.545Z,14.77
2023-12-01T21:58:15.519Z,17.58
2023-12-01T22:02:19.488Z,14.32
2023-12-01T22:06:21.606Z,17.27
2023-12-01T22:10:23.676Z,13.17
2023-12-01T22:14:25.569Z,13.20
2023-12-01T22:18:28.567Z,13.75
2023-12-01T22:26:32.536Z,12.05
2023-12-01T22:30:34.494Z,14.25
2023-12-01T22:34:36.448Z,10.35
2023-12-01T22:38:47.805Z,13.50
2023-12-01T22:42:49.690Z,11.32
2023-12-01T22:46:56.366Z,13.43
2023-12-01T22:50:58.154Z,13.68
2023-12-01T22:55:14.116Z,13.00
2023-12-01T22:59:16.027Z,14.13
2023-12-01T23:03:18.859Z,13.32
2023-12-01T23:11:23.078Z,13.48
2023-12-01T23:15:26.093Z,14.93
2023-12-01T23:19:28.114Z,13.13
2023-12-01T23:23:30.396Z,13.90
2023-12-01T23:27:35.784Z,14.67
2023-12-01T23:31:37.880Z,14.82
2023-12-01T23:35:44.886Z,14.52
2023-12-01T23:39:47.453Z,12.77
2023-12-01T23:43:49.245Z,14.52
2023-12-01T23:47:51.370Z,13.50
2023-12-01T23:51:53.665Z,14.70
2023-12-01T23:55:56.180Z,13.97
2023-12-01T23:59:58.108Z,15.68
